FW9535 Weather Reports


Display with metric or nautical units.
time (UTC)temp
F
wind
direction
speed
MPH
gust
MPH
rain 1hr
in
rain 24hr
in
rain mn
in
humidity
%
barometer
mb
20221204184752 58 256 0.0 1.0 0.00 0.00 0.00 94 1006.8
20221204183252 57 208 1.0 1.0 0.00 0.00 0.00 93 1006.9
20221204181752 59 259 1.0 2.0 0.00 0.00 0.00 92 1006.7
20221204180250 59 205 1.0 2.0 0.00 0.00 0.00 88 1006.6
20221204174748 61 260 1.0 1.0 0.00 0.00 0.00 84 1006.3
20221204173247 61 307 1.0 1.0 0.00 0.00 0.00 85 1006.5
20221204171747 59 296 2.0 2.0 0.00 0.00 0.00 91 1006.7
20221204170247 60 252 1.0 1.0 0.00 0.00 0.00 88 1006.7
20221204164747 62 280 0.0 1.0 0.00 0.00 0.00 82 1007.0
20221204163247 61 327 4.0 5.0 0.00 0.00 0.00 85 1007.1
20221204161747 61 283 1.0 1.0 0.00 0.00 0.00 85 1007.3
20221204160246 63 288 0.0 0.0 0.00 0.00 0.00 80 1007.3
20221204154746 62 290 1.0 1.0 0.00 0.00 0.00 81 1007.5
20221204153245 63 305 1.0 2.0 0.00 0.00 0.00 81 1007.8
20221204151743 63 320 2.0 2.0 0.00 0.00 0.00 80 1008.1
20221204150242 64 289 2.0 3.0 0.00 0.00 0.00 78 1008.6
20221204144742 62 336 3.0 3.0 0.00 0.00 0.00 81 1008.6
20221204143243 63 311 1.0 2.0 0.00 0.00 0.00 81 1008.9
20221204141742 63 287 0.0 0.0 0.00 0.00 0.00 79 1009.2
20221204140241 64 299 3.0 3.0 0.00 0.00 0.00 77 1009.8
20221204134739 65 348 5.0 8.0 0.00 0.00 0.00 77 1010.0
20221204133238 64 315 3.0 3.0 0.00 0.00 0.00 77 1009.9
20221204131737 65 42 8.0 11.0 0.00 0.00 0.00 76 1010.2
20221204130236 64 305 4.0 6.0 0.00 0.00 0.00 79 1010.6
20221204124735 64 348 3.0 6.0 0.00 0.00 0.00 80 1010.5
20221204123235 63 294 3.0 5.0 0.00 0.00 0.00 84 1010.8
20221204121735 63 310 1.0 2.0 0.00 0.00 0.00 84 1010.9
20221204120235 64 310 1.0 1.0 0.00 0.00 0.00 83 1011.2
20221204114733 64 310 6.0 7.0 0.00 0.00 0.00 82 1011.1
20221204113232 64 297 4.0 6.0 0.00 0.00 0.00 83 1011.3
20221204111731 64 289 2.0 3.0 0.00 0.00 0.00 82 1011.2
20221204110229 64 335 3.0 5.0 0.00 0.00 0.00 82 1011.3
20221204104729 64 336 5.0 6.0 0.00 0.00 0.00 83 1011.2
20221204103229 64 322 3.0 3.0 0.00 0.00 0.00 84 1011.1
20221204101729 65 334 3.0 3.0 0.00 0.00 0.00 83 1011.0
20221204100229 65 29 6.0 8.0 0.00 0.00 0.00 82 1010.8
20221204094728 66 304 4.0 6.0 0.00 0.00 0.00 82 1010.7
20221204093227 65 325 5.0 7.0 0.00 0.00 0.00 82 1010.6
20221204091727 66 299 3.0 6.0 0.00 0.00 0.00 82 1010.7
20221204090226 66 352 5.0 7.0 0.00 0.00 0.00 82 1010.6
20221204084724 66 306 7.0 10.0 0.00 0.00 0.00 80 1010.4
20221204083223 68 343 9.0 14.0 0.00 0.00 0.00 77 1010.4
20221204081723 68 339 8.0 9.0 0.00 0.00 0.00 75 1010.6
20221204080223 69 324 6.0 9.0 0.00 0.00 0.00 74 1010.6
20221204074723 70 357 6.0 8.0 0.00 0.00 0.00 73 1010.6
20221204073222 71 356 8.0 10.0 0.00 0.00 0.00 71 1010.4
20221204071723 72 271 6.0 8.0 0.00 0.00 0.00 69 1010.2
20221204070223 72 330 7.0 11.0 0.00 0.00 0.00 67 1010.2
20221204064722 73 325 12.0 18.0 0.00 0.00 0.00 67 1010.3
20221204063220 73 299 7.0 9.0 0.00 0.00 0.00 65 1010.0
20221204061719 75 331 7.0 9.0 0.00 0.00 0.00 63 1010.4
20221204060219 75 45 5.0 9.0 0.00 0.00 0.00 59 1010.6
20221204054718 75 335 5.0 6.0 0.00 0.00 0.00 61 1010.5
20221204053217 75 6 9.0 16.0 0.00 0.00 0.00 61 1010.4
20221204051716 75 4 8.0 13.0 0.00 0.00 0.00 60 1010.6
20221204050215 76 301 5.0 8.0 0.00 0.00 0.00 62 1010.8
20221204044715 77 329 8.0 10.0 0.00 0.00 0.00 59 1011.2
20221204043214 76 10 6.0 9.0 0.00 0.00 0.00 61 1011.2
20221204041713 76 320 7.0 9.0 0.00 0.00 0.00 60 1011.6
20221204040212 75 53 7.0 9.0 0.00 0.00 0.00 62 1011.5
20221204034712 77 333 15.0 22.0 0.00 0.00 0.00 61 1011.9
20221204033212 78 325 5.0 8.0 0.00 0.00 0.00 61 1012.0
20221204031711 77 317 6.0 11.0 0.00 0.00 0.00 61 1012.2
20221204030211 76 6 6.0 8.0 0.00 0.00 0.00 63 1012.6
20221204024710 77 69 6.0 8.0 0.00 0.00 0.00 62 1012.4
20221204023209 76 292 9.0 13.0 0.00 0.00 0.00 63 1012.6
20221204021708 76 7 5.0 6.0 0.00 0.00 0.00 65 1012.8
20221204020207 77 21 7.0 9.0 0.00 0.00 0.00 61 1013.2
20221204014708 78 358 11.0 16.0 0.00 0.00 0.00 59 1013.5
20221204013206 75 5 7.0 9.0 0.00 0.00 0.00 64 1013.7
20221204011705 76 72 6.0 8.0 0.00 0.00 0.00 62 1013.6
20221204010203 77 356 2.0 5.0 0.00 0.00 0.00 60 1013.9
20221204004703 77 344 6.0 8.0 0.00 0.00 0.00 61 1014.0
20221204003203 76 355 7.0 10.0 0.00 0.00 0.00 62 1014.0
20221204001701 76 27 9.0 11.0 0.00 0.00 0.00 61 1014.2
20221204000201 76 317 10.0 14.0 0.00 0.00 0.00 60 1014.4
20221203234700 77 323 5.0 10.0 0.00 0.00 0.00 60 1014.7
20221203233159 76 337 8.0 11.0 0.00 0.00 0.00 61 1014.5
20221203231658 76 325 4.0 6.0 0.00 0.00 0.00 50 1014.8
20221203230157 78 2 4.0 5.0 0.00 0.00 0.00 49 1014.9
20221203224657 76 291 4.0 6.0 0.00 0.00 0.00 50 1015.0
20221203223157 76 320 2.0 3.0 0.00 0.00 0.00 52 1015.2
20221203221655 75 167 2.0 2.0 0.00 0.00 0.00 61 1015.4
20221203220155 76 91 3.0 5.0 0.00 0.00 0.00 62 1015.3
20221203214654 75 326 1.0 1.0 0.00 0.00 0.00 64 1015.5
20221203213154 72 242 1.0 1.0 0.00 0.00 0.00 68 1015.6
20221203211653 70 258 0.0 1.0 0.00 0.00 0.00 72 1015.8
20221203210152 67 238 2.0 2.0 0.00 0.00 0.00 79 1015.6
20221203204650 65 276 0.0 0.0 0.00 0.00 0.00 88 1015.6
20221203203149 61 283 1.0 1.0 0.00 0.00 0.00 95 1015.6
20221203201649 59 229 2.0 2.0 0.00 0.00 0.00 97 1015.5
20221203200149 58 248 1.0 1.0 0.00 0.00 0.00 97 1015.4
20221203194649 57 240 0.0 1.0 0.00 0.00 0.00 98 1015.3
20221203193149 55 273 1.0 1.0 0.00 0.00 0.00 98 1015.3
20221203191647 54 263 1.0 1.0 0.00 0.00 0.00 98 1015.2
20221203190146 54 292 0.0 0.0 0.00 0.00 0.00 98 1015.1